Time;durP1;ratioP1;P1;durP2;ratioP2;P2;SDS_P1;SDS_P2;PMS_P1;PMS_P2;Temp;Humidity;BMP_temperature;BMP_pressure;BME280_temperature;BME280_humidity;BME280_pressure;Samples;Min_cycle;Max_cycle;Signal;HPM_P1;HPM_P2
2023/06/22 00:02:16;;;;;;;22.35;18.15;;;18.20;99.90;;;;;;5076201;27;20134;-75
2023/06/22 00:04:43;;;;;;;20.33;16.77;;;17.50;99.90;;;;;;5053346;27;20039;-75
2023/06/22 00:07:09;;;;;;;18.67;15.38;;;18.20;99.90;;;;;;5071845;27;20553;-74
2023/06/22 00:09:41;;;;;;;18.73;16.05;;;18.20;99.90;;;;;;5083740;27;20116;-73
2023/06/22 00:12:13;;;;;;;19.90;16.25;;;18.20;99.90;;;;;;5077820;27;20054;-73
2023/06/22 00:14:53;;;;;;;19.05;15.40;;;18.20;99.90;;;;;;5062688;27;20123;-75
2023/06/22 00:17:26;;;;;;;20.23;15.88;;;18.20;99.90;;;;;;5103914;27;20055;-74
2023/06/22 00:19:58;;;;;;;19.58;14.90;;;18.20;99.90;;;;;;5083246;28;20868;-74
2023/06/22 00:22:28;;;;;;;18.20;14.95;;;18.20;99.90;;;;;;5067757;28;20056;-74
2023/06/22 00:24:56;;;;;;;20.25;15.48;;;18.20;99.90;;;;;;5052844;28;20117;-74
2023/06/22 00:27:30;;;;;;;21.17;16.02;;;18.30;99.90;;;;;;5054184;28;20131;-74
2023/06/22 00:30:08;;;;;;;20.73;15.75;;;18.30;99.90;;;;;;5055901;28;20040;-73
2023/06/22 00:32:34;;;;;;;24.85;17.40;;;18.30;99.90;;;;;;5037982;28;20141;-73
2023/06/22 00:35:05;;;;;;;25.58;18.55;;;18.30;99.90;;;;;;5054809;28;20047;-74
2023/06/22 00:37:38;;;;;;;23.65;17.05;;;18.30;99.90;;;;;;5046812;28;20447;-76
2023/06/22 00:40:05;;;;;;;23.40;16.48;;;18.30;99.90;;;;;;5037878;28;20122;-73
2023/06/22 00:42:39;;;;;;;29.63;20.65;;;18.30;99.90;;;;;;5039182;28;20055;-73
2023/06/22 00:45:26;;;;;;;29.58;21.42;;;18.20;99.90;;;;;;5069242;28;20068;-74
2023/06/22 00:48:00;;;;;;;34.15;23.80;;;18.20;99.90;;;;;;5048189;28;20056;-74
2023/06/22 00:50:28;;;;;;;28.83;22.27;;;18.20;99.90;;;;;;5056267;28;20103;-74
2023/06/22 00:53:00;;;;;;;36.53;23.05;;;18.10;99.90;;;;;;5065751;28;20170;-74
2023/06/22 00:55:31;;;;;;;31.25;23.58;;;18.10;99.90;;;;;;5070672;28;20043;-73
2023/06/22 00:58:10;;;;;;;35.13;25.20;;;18.10;99.90;;;;;;5050245;28;20075;-75
2023/06/22 01:00:46;;;;;;;31.17;23.33;;;18.10;99.90;;;;;;5063552;28;20048;-76
2023/06/22 01:03:13;;;;;;;36.63;24.27;;;18.10;99.90;;;;;;5074751;28;20040;-73
2023/06/22 01:05:40;;;;;;;33.63;24.77;;;18.10;99.90;;;;;;5047477;28;20074;-73
2023/06/22 01:08:23;;;;;;;33.95;25.27;;;18.00;99.90;;;;;;5071434;28;20058;-74
2023/06/22 01:11:07;;;;;;;34.97;25.85;;;18.00;99.90;;;;;;5091407;28;20040;-74
2023/06/22 01:14:07;;;;;;;35.80;26.20;;;18.00;99.90;;;;;;5092770;28;20154;-75
2023/06/22 01:16:36;;;;;;;31.38;25.75;;;18.10;99.90;;;;;;5061844;28;20035;-74
2023/06/22 01:19:28;;;;;;;35.10;27.13;;;18.00;99.90;;;;;;5068317;27;20047;-72
2023/06/22 01:21:57;;;;;;;33.03;24.55;;;18.10;99.90;;;;;;5095754;27;20047;-77
2023/06/22 01:24:25;;;;;;;46.10;28.52;;;18.00;99.90;;;;;;5096228;27;20051;-73
2023/06/22 01:27:14;;;;;;;38.22;26.58;;;18.00;99.90;;;;;;5095328;27;20039;-73
2023/06/22 01:29:44;;;;;;;37.63;26.15;;;18.10;99.90;;;;;;5112068;27;20039;-76
2023/06/22 01:32:11;;;;;;;41.80;26.85;;;18.00;99.90;;;;;;5044178;28;20056;-73
2023/06/22 01:34:40;;;;;;;42.60;27.33;;;18.00;99.90;;;;;;5010704;28;20089;-73
2023/06/22 01:37:09;;;;;;;41.00;27.40;;;18.10;99.90;;;;;;5010127;28;20052;-77
2023/06/22 01:39:37;;;;;;;43.85;28.42;;;18.00;99.90;;;;;;5026132;28;20041;-73
2023/06/22 01:42:07;;;;;;;43.58;27.95;;;18.10;99.90;;;;;;5042942;28;20217;-73
2023/06/22 01:44:34;;;;;;;42.28;29.48;;;18.00;99.90;;;;;;5027121;28;20507;-75
2023/06/22 01:47:00;;;;;;;42.42;29.73;;;18.10;99.90;;;;;;5028183;28;20091;-73
2023/06/22 01:49:28;;;;;;;41.55;29.98;;;18.10;99.90;;;;;;5026827;28;20521;-73
2023/06/22 01:51:54;;;;;;;40.70;29.15;;;18.10;99.90;;;;;;5009974;28;20061;-73
2023/06/22 01:54:19;;;;;;;41.83;29.88;;;18.10;99.90;;;;;;5027531;28;20582;-74
2023/06/22 01:56:46;;;;;;;44.85;31.80;;;17.70;99.90;;;;;;5010050;28;20061;-74
2023/06/22 01:59:32;;;;;;;42.25;30.80;;;18.10;99.90;;;;;;5009253;28;20053;-73
2023/06/22 02:02:07;;;;;;;43.20;30.15;;;18.00;99.90;;;;;;5036891;28;20048;-75
2023/06/22 02:04:39;;;;;;;41.45;30.95;;;18.00;99.90;;;;;;5059453;27;20063;-74
2023/06/22 02:07:12;;;;;;;44.42;30.73;;;18.00;99.90;;;;;;5093472;27;20039;-73
2023/06/22 02:09:40;;;;;;;39.88;28.40;;;18.00;99.90;;;;;;5060940;27;20066;-73
2023/06/22 02:12:08;;;;;;;46.65;30.52;;;17.90;99.90;;;;;;5077482;27;20146;-74
2023/06/22 02:14:41;;;;;;;41.22;30.38;;;17.90;99.90;;;;;;5067057;27;20061;-73
2023/06/22 02:17:09;;;;;;;39.67;29.17;;;17.90;99.90;;;;;;5064360;27;20112;-75
2023/06/22 02:19:40;;;;;;;37.55;29.23;;;17.90;99.90;;;;;;5090479;27;20546;-73
2023/06/22 02:22:06;;;;;;;41.15;27.17;;;17.90;99.90;;;;;;5082733;27;20059;-75
2023/06/22 02:24:33;;;;;;;60.70;33.67;;;17.90;99.90;;;;;;5078208;27;20039;-73
2023/06/22 02:27:02;;;;;;;49.38;31.73;;;17.90;99.90;;;;;;5065307;27;20058;-74
2023/06/22 02:29:31;;;;;;;54.05;33.95;;;17.90;99.90;;;;;;5087164;27;20048;-76
2023/06/22 02:31:59;;;;;;;51.30;33.33;;;17.90;99.90;;;;;;5078501;27;20055;-75
2023/06/22 02:34:24;;;;;;;58.35;32.97;;;17.90;99.90;;;;;;5093473;27;20051;-75
2023/06/22 02:36:51;;;;;;;48.55;33.00;;;17.90;99.90;;;;;;5032202;27;20051;-74
2023/06/22 02:39:24;;;;;;;82.22;35.22;;;17.90;99.90;;;;;;5075360;27;20054;-77
2023/06/22 02:41:51;;;;;;;48.38;32.33;;;17.90;99.90;;;;;;5076978;27;20047;-74
2023/06/22 02:44:22;;;;;;;94.43;33.97;;;18.40;99.90;;;;;;5064505;27;20058;-75
2023/06/22 02:46:48;;;;;;;43.55;30.63;;;17.90;99.90;;;;;;5091349;27;20063;-73
2023/06/22 02:49:14;;;;;;;43.75;32.05;;;17.90;99.90;;;;;;5048130;27;20070;-74
2023/06/22 02:51:47;;;;;;;63.72;33.10;;;17.90;99.90;;;;;;5111242;27;20091;-75
2023/06/22 02:54:19;;;;;;;47.22;32.30;;;18.00;99.90;;;;;;5065728;27;20398;-78
2023/06/22 02:56:50;;;;;;;50.75;33.42;;;18.00;99.90;;;;;;5054174;27;20520;-75
2023/06/22 02:59:16;;;;;;;46.00;32.83;;;18.00;99.90;;;;;;5061001;27;20132;-74
2023/06/22 03:01:42;;;;;;;51.15;35.20;;;18.00;99.90;;;;;;5075523;27;20154;-74
2023/06/22 03:04:09;;;;;;;54.92;35.60;;;18.00;99.90;;;;;;5092156;27;20453;-74
2023/06/22 03:06:38;;;;;;;81.38;34.53;;;18.00;99.90;;;;;;5075879;27;20074;-74
2023/06/22 03:09:06;;;;;;;56.05;36.85;;;18.00;99.90;;;;;;5093208;27;20479;-75
2023/06/22 03:11:33;;;;;;;49.05;33.97;;;18.00;99.90;;;;;;5077319;27;20088;-75
2023/06/22 03:13:59;;;;;;;53.95;35.53;;;17.60;99.90;;;;;;5073942;27;20039;-74
2023/06/22 03:16:25;;;;;;;50.38;36.10;;;18.00;99.90;;;;;;5048691;27;20039;-74
2023/06/22 03:18:53;;;;;;;55.15;37.15;;;18.00;99.90;;;;;;5092180;27;20044;-74
2023/06/22 03:21:29;;;;;;;53.70;36.47;;;18.00;99.90;;;;;;5077478;27;20141;-74
2023/06/22 03:23:56;;;;;;;53.95;35.75;;;18.00;99.90;;;;;;5090986;27;20075;-75
2023/06/22 03:26:28;;;;;;;56.05;36.47;;;18.00;99.90;;;;;;5059668;27;20050;-74
2023/06/22 03:29:00;;;;;;;50.67;35.35;;;18.00;99.90;;;;;;5054487;27;20078;-75
2023/06/22 03:31:33;;;;;;;46.65;32.75;;;18.00;99.90;;;;;;5076426;27;20047;-75
2023/06/22 03:33:58;;;;;;;45.53;33.15;;;18.00;99.90;;;;;;5076100;27;20135;-74
2023/06/22 03:36:25;;;;;;;43.92;33.15;;;18.00;99.90;;;;;;5057697;27;20040;-76
2023/06/22 03:38:52;;;;;;;42.58;31.90;;;17.90;99.90;;;;;;5092945;27;20070;-75
2023/06/22 03:41:19;;;;;;;45.30;33.92;;;17.90;99.90;;;;;;5061485;27;20035;-77
2023/06/22 03:43:45;;;;;;;47.42;34.72;;;17.90;99.90;;;;;;5092461;27;20080;-74
2023/06/22 03:46:10;;;;;;;52.67;35.00;;;17.90;99.90;;;;;;5079769;27;20039;-75
2023/06/22 03:48:42;;;;;;;50.72;34.88;;;17.90;99.90;;;;;;5061933;27;20050;-74
2023/06/22 03:51:08;;;;;;;50.42;33.95;;;17.90;99.90;;;;;;5047185;27;20039;-75
2023/06/22 03:53:40;;;;;;;46.63;33.10;;;17.90;99.90;;;;;;5076743;27;20058;-75
2023/06/22 03:56:06;;;;;;;42.67;32.35;;;17.90;99.90;;;;;;5074478;27;20035;-75
2023/06/22 03:58:33;;;;;;;41.05;32.22;;;17.90;99.90;;;;;;5074676;28;20043;-75
2023/06/22 04:00:59;;;;;;;39.47;31.13;;;17.90;99.90;;;;;;5075943;27;20453;-74
2023/06/22 04:03:25;;;;;;;40.95;32.15;;;17.90;99.90;;;;;;5068214;27;20175;-75
2023/06/22 04:05:51;;;;;;;121.20;33.40;;;18.00;99.90;;;;;;5072133;27;20079;-74
2023/06/22 04:08:18;;;;;;;47.47;30.95;;;18.00;99.90;;;;;;5107609;27;20034;-76
2023/06/22 04:10:44;;;;;;;39.67;30.70;;;18.00;99.90;;;;;;5073930;28;20047;-76
2023/06/22 04:13:10;;;;;;;41.78;30.50;;;18.00;99.90;;;;;;5078408;27;20422;-76
2023/06/22 04:15:36;;;;;;;42.13;30.88;;;18.00;99.90;;;;;;5074273;27;20042;-75
2023/06/22 04:18:04;;;;;;;41.67;30.75;;;18.00;99.90;;;;;;5062278;27;20561;-74
2023/06/22 04:20:32;;;;;;;39.63;29.75;;;18.10;99.90;;;;;;5075350;27;20134;-75
2023/06/22 04:22:58;;;;;;;40.22;29.92;;;18.10;99.90;;;;;;5072919;27;20550;-75
2023/06/22 04:25:23;;;;;;;39.90;29.70;;;18.20;99.90;;;;;;5043397;28;20043;-75
2023/06/22 04:27:49;;;;;;;37.70;29.02;;;18.20;99.90;;;;;;5062948;27;20074;-74
2023/06/22 04:30:16;;;;;;;41.15;29.13;;;18.20;99.90;;;;;;5062077;27;20071;-75
2023/06/22 04:32:44;;;;;;;42.10;29.98;;;18.20;99.90;;;;;;5056330;27;20077;-74
2023/06/22 04:35:16;;;;;;;38.05;27.98;;;18.20;99.90;;;;;;5073474;28;20054;-75
2023/06/22 04:37:43;;;;;;;39.15;27.63;;;18.30;99.90;;;;;;5064486;27;20160;-75
2023/06/22 04:40:09;;;;;;;39.85;27.15;;;18.30;99.90;;;;;;5073261;28;20073;-74
2023/06/22 04:42:51;;;;;;;34.90;25.85;;;18.30;99.90;;;;;;5079091;27;20076;-75
2023/06/22 04:45:20;;;;;;;38.80;27.10;;;18.40;99.90;;;;;;5048211;28;20780;-76
2023/06/22 04:47:47;;;;;;;40.88;27.10;;;18.30;99.90;;;;;;5092406;28;20136;-75
2023/06/22 04:50:17;;;;;;;39.13;26.42;;;18.40;99.90;;;;;;5073139;28;20039;-75
2023/06/22 04:52:43;;;;;;;38.70;27.33;;;18.40;99.90;;;;;;5088184;27;20067;-77
2023/06/22 04:55:09;;;;;;;35.28;24.95;;;18.40;99.90;;;;;;5092014;27;20498;-74
2023/06/22 04:57:39;;;;;;;38.15;26.10;;;18.40;99.90;;;;;;5089984;27;20077;-74
2023/06/22 05:00:17;;;;;;;36.25;26.23;;;18.50;99.90;;;;;;5065627;27;20043;-74
2023/06/22 05:02:46;;;;;;;36.78;27.05;;;18.50;99.90;;;;;;5075960;27;20075;-75
2023/06/22 05:05:16;;;;;;;35.88;26.48;;;18.50;99.90;;;;;;5113432;27;20051;-76
2023/06/22 05:07:50;;;;;;;36.42;25.88;;;18.60;99.90;;;;;;5097109;27;20462;-73
2023/06/22 05:10:19;;;;;;;35.15;26.52;;;18.60;99.90;;;;;;5083905;27;20047;-75
2023/06/22 05:12:46;;;;;;;35.30;24.80;;;18.70;99.90;;;;;;5076698;27;20554;-75
2023/06/22 05:15:12;;;;;;;36.28;25.10;;;18.70;99.90;;;;;;5094228;27;20429;-75
2023/06/22 05:17:42;;;;;;;37.97;25.65;;;18.70;99.90;;;;;;5095313;27;20054;-71
2023/06/22 05:20:10;;;;;;;39.45;25.90;;;18.80;99.90;;;;;;5065804;27;20147;-70
2023/06/22 05:22:36;;;;;;;36.78;26.73;;;18.80;99.90;;;;;;5075023;27;20044;-70
2023/06/22 05:25:01;;;;;;;35.40;25.02;;;18.80;99.90;;;;;;5096649;27;20050;-71
2023/06/22 05:27:27;;;;;;;38.70;26.40;;;18.90;99.90;;;;;;5093888;28;20435;-70
2023/06/22 05:29:53;;;;;;;37.80;25.73;;;18.30;99.90;;;;;;5049377;28;20192;-70
2023/06/22 05:32:18;;;;;;;35.90;26.15;;;19.00;99.90;;;;;;5072617;28;20070;-70
2023/06/22 05:34:44;;;;;;;33.13;24.25;;;19.10;99.90;;;;;;5079085;28;20067;-71
2023/06/22 05:37:10;;;;;;;36.47;25.45;;;19.20;99.90;;;;;;5078199;28;20375;-70
2023/06/22 05:39:38;;;;;;;31.00;23.05;;;19.20;99.90;;;;;;5067267;28;20047;-71
2023/06/22 05:42:08;;;;;;;35.67;25.55;;;19.30;99.90;;;;;;5076023;28;20050;-72
2023/06/22 05:44:33;;;;;;;33.65;23.65;;;19.30;99.90;;;;;;5090155;28;20051;-71
2023/06/22 05:46:59;;;;;;;42.03;26.38;;;19.40;99.90;;;;;;5075180;28;20501;-70
2023/06/22 05:49:29;;;;;;;33.83;23.38;;;19.50;99.90;;;;;;5093299;28;20046;-71
2023/06/22 05:51:56;;;;;;;34.13;24.33;;;19.60;99.90;;;;;;5095533;28;20090;-71
2023/06/22 05:54:22;;;;;;;32.92;22.67;;;19.70;99.90;;;;;;5065839;28;20516;-72
2023/06/22 05:56:54;;;;;;;32.85;22.80;;;19.80;99.90;;;;;;5099248;28;20039;-71
2023/06/22 05:59:20;;;;;;;38.90;25.48;;;19.90;99.90;;;;;;5099374;28;20446;-71
2023/06/22 06:01:49;;;;;;;32.88;24.00;;;20.00;99.90;;;;;;5080896;28;20043;-72
2023/06/22 06:04:17;;;;;;;33.53;24.95;;;20.10;99.90;;;;;;5099284;28;20410;-72
2023/06/22 06:06:43;;;;;;;33.80;24.67;;;20.20;99.90;;;;;;5084225;28;20126;-72
2023/06/22 06:09:08;;;;;;;33.70;22.67;;;20.30;99.90;;;;;;5083515;28;20126;-71
2023/06/22 06:11:34;;;;;;;29.00;21.95;;;20.30;99.90;;;;;;5083799;28;20046;-72
2023/06/22 06:14:00;;;;;;;27.25;21.65;;;20.40;99.90;;;;;;5066813;28;20443;-72
2023/06/22 06:16:25;;;;;;;30.20;21.98;;;20.50;99.90;;;;;;5097917;28;20107;-72
2023/06/22 06:18:53;;;;;;;27.50;21.70;;;20.60;99.90;;;;;;5083769;28;20042;-72
2023/06/22 06:21:19;;;;;;;26.45;19.98;;;20.70;99.90;;;;;;5100592;28;20043;-72
2023/06/22 06:23:44;;;;;;;23.55;17.83;;;20.80;99.90;;;;;;5066800;28;20048;-72
2023/06/22 06:26:10;;;;;;;22.27;19.05;;;20.90;99.90;;;;;;5083256;28;20039;-70
2023/06/22 06:28:36;;;;;;;21.65;18.90;;;21.00;99.90;;;;;;5057813;27;1140111;-71
2023/06/22 06:31:02;;;;;;;23.67;16.92;;;21.10;99.90;;;;;;5096915;27;20079;-70
2023/06/22 06:33:28;;;;;;;21.80;16.75;;;21.10;99.90;;;;;;5100696;27;20135;-73
2023/06/22 06:35:55;;;;;;;20.70;17.02;;;21.20;99.90;;;;;;5082324;27;20051;-72
2023/06/22 06:38:21;;;;;;;20.77;18.50;;;21.20;99.90;;;;;;5101903;27;20051;-71
2023/06/22 06:40:48;;;;;;;20.70;17.58;;;21.30;99.90;;;;;;5095026;27;20070;-72
2023/06/22 06:43:14;;;;;;;19.00;16.15;;;21.30;99.90;;;;;;5113085;27;20054;-73
2023/06/22 06:45:40;;;;;;;22.52;16.73;;;21.40;99.90;;;;;;5094824;27;20410;-71
2023/06/22 06:48:06;;;;;;;21.60;16.45;;;21.50;99.90;;;;;;5119557;27;20162;-71
2023/06/22 06:50:33;;;;;;;17.17;15.13;;;21.60;99.90;;;;;;5099991;27;20050;-71
2023/06/22 06:52:59;;;;;;;18.63;16.13;;;21.70;99.90;;;;;;5084474;27;20046;-70
2023/06/22 06:55:25;;;;;;;17.52;15.63;;;21.80;99.90;;;;;;5117770;27;20066;-71
2023/06/22 06:57:52;;;;;;;16.67;14.63;;;21.90;99.90;;;;;;5083588;27;20058;-71
2023/06/22 07:00:18;;;;;;;18.02;15.52;;;22.10;99.90;;;;;;5098492;27;20585;-73
2023/06/22 07:02:45;;;;;;;20.40;15.52;;;22.20;99.90;;;;;;5067744;27;20047;-73
2023/06/22 07:05:12;;;;;;;23.65;16.52;;;22.40;99.90;;;;;;5068958;27;20043;-74
2023/06/22 07:07:38;;;;;;;19.92;14.73;;;22.40;99.90;;;;;;5096356;27;20052;-72
2023/06/22 07:10:07;;;;;;;17.40;15.35;;;22.60;99.90;;;;;;5101741;27;20043;-73
2023/06/22 07:12:33;;;;;;;17.92;15.15;;;22.80;99.90;;;;;;5065520;27;20067;-74
2023/06/22 07:15:11;;;;;;;19.65;15.07;;;22.90;99.90;;;;;;5074467;28;20091;-78
2023/06/22 07:17:37;;;;;;;17.35;14.07;;;23.00;99.90;;;;;;5066838;27;20719;-79
2023/06/22 07:20:11;;;;;;;17.50;13.63;;;23.20;99.90;;;;;;5101039;27;20044;-79
2023/06/22 07:22:38;;;;;;;16.42;14.07;;;23.40;99.90;;;;;;5084636;27;20044;-79
2023/06/22 07:25:08;;;;;;;15.85;13.20;;;23.60;99.90;;;;;;5101969;27;20054;-80
2023/06/22 07:27:42;;;;;;;15.30;12.32;;;23.70;99.90;;;;;;5098896;27;20046;-79
2023/06/22 07:30:09;;;;;;;14.18;12.60;;;23.90;99.90;;;;;;5085426;27;20047;-78
2023/06/22 07:32:35;;;;;;;16.60;13.25;;;24.10;99.90;;;;;;5083111;27;20624;-80
2023/06/22 07:35:02;;;;;;;13.70;11.73;;;24.20;99.90;;;;;;5083421;27;20107;-80
2023/06/22 07:37:28;;;;;;;12.35;10.70;;;24.40;99.90;;;;;;5068392;27;20079;-81
2023/06/22 07:39:58;;;;;;;14.15;11.65;;;24.60;99.90;;;;;;5100088;27;20112;-80
2023/06/22 07:42:32;;;;;;;11.23;9.85;;;24.80;99.90;;;;;;5051181;27;20052;-81
2023/06/22 07:44:58;;;;;;;12.55;9.55;;;24.90;99.90;;;;;;5101410;27;20048;-81
2023/06/22 07:47:26;;;;;;;11.90;10.18;;;25.10;99.90;;;;;;5102610;27;20053;-79
2023/06/22 07:49:54;;;;;;;13.68;10.75;;;25.30;99.90;;;;;;5102169;27;20056;-80
2023/06/22 07:52:20;;;;;;;13.77;10.25;;;25.30;99.90;;;;;;5099697;27;20062;-80
2023/06/22 07:54:47;;;;;;;12.13;8.90;;;25.40;99.90;;;;;;5102367;27;20528;-81
2023/06/22 07:57:12;;;;;;;10.02;7.95;;;25.50;99.90;;;;;;5103795;27;20493;-79
2023/06/22 07:59:38;;;;;;;8.95;7.22;;;25.60;99.90;;;;;;5102992;27;20043;-79
2023/06/22 08:02:05;;;;;;;10.90;8.77;;;25.80;99.90;;;;;;5085476;27;20046;-79
2023/06/22 08:04:33;;;;;;;11.30;8.30;;;25.90;99.90;;;;;;5082707;27;20082;-80
2023/06/22 08:06:59;;;;;;;10.52;8.00;;;26.10;99.90;;;;;;5102339;27;20047;-79
2023/06/22 08:09:25;;;;;;;9.98;7.13;;;26.30;99.90;;;;;;5068314;27;20451;-79
2023/06/22 08:11:51;;;;;;;7.70;6.90;;;26.50;99.90;;;;;;5053555;27;20094;-79
2023/06/22 08:14:16;;;;;;;7.53;5.60;;;26.60;99.90;;;;;;5105069;28;20051;-80
2023/06/22 08:16:43;;;;;;;7.53;6.20;;;26.70;99.90;;;;;;5056637;27;20039;-79
2023/06/22 08:19:09;;;;;;;9.63;6.68;;;26.80;99.90;;;;;;5108002;27;20240;-80
2023/06/22 08:21:37;;;;;;;8.88;7.45;;;27.00;99.90;;;;;;5090485;27;20040;-80
2023/06/22 08:24:03;;;;;;;10.63;8.57;;;27.00;99.90;;;;;;5102689;28;20188;-80
2023/06/22 08:26:29;;;;;;;7.78;6.97;;;27.10;99.90;;;;;;5090391;27;20063;-79
2023/06/22 08:28:54;;;;;;;12.07;7.38;;;27.30;99.90;;;;;;5090083;27;20401;-79
2023/06/22 08:31:20;;;;;;;7.90;6.93;;;27.50;99.90;;;;;;5089030;27;20084;-80
2023/06/22 08:33:46;;;;;;;10.07;7.32;;;27.60;99.90;;;;;;5069279;28;20054;-79
2023/06/22 08:36:13;;;;;;;9.18;7.05;;;27.60;99.90;;;;;;5086431;28;20459;-80
2023/06/22 08:38:39;;;;;;;8.38;6.85;;;27.70;99.90;;;;;;5086793;28;20135;-79
2023/06/22 08:41:04;;;;;;;7.38;5.80;;;27.80;99.90;;;;;;5104212;28;20444;-79
2023/06/22 08:43:30;;;;;;;9.15;6.07;;;27.90;99.90;;;;;;5099037;28;20040;-80
2023/06/22 08:45:56;;;;;;;8.65;6.53;;;28.00;99.90;;;;;;5098604;27;20047;-80
2023/06/22 08:48:22;;;;;;;7.40;6.10;;;28.10;99.90;;;;;;5101027;27;20070;-80
2023/06/22 08:50:47;;;;;;;8.48;5.47;;;28.20;99.90;;;;;;5085204;28;20108;-80
2023/06/22 08:53:13;;;;;;;8.82;7.30;;;28.40;99.90;;;;;;5068569;28;20047;-80
2023/06/22 08:55:39;;;;;;;7.82;6.22;;;28.60;99.90;;;;;;5081283;28;20054;-79
2023/06/22 08:58:05;;;;;;;7.63;6.68;;;28.70;99.90;;;;;;5101954;28;20047;-80
2023/06/22 09:00:34;;;;;;;7.47;6.68;;;28.70;99.80;;;;;;5081960;28;20051;-80
2023/06/22 09:03:00;;;;;;;8.18;6.25;;;28.90;99.70;;;;;;5068213;28;20051;-79
2023/06/22 09:05:26;;;;;;;9.48;7.38;;;29.20;99.90;;;;;;5078281;28;20390;-81
2023/06/22 09:07:52;;;;;;;8.50;7.53;;;29.30;99.40;;;;;;5050740;28;20502;-77
2023/06/22 09:10:18;;;;;;;7.57;6.75;;;29.40;99.00;;;;;;5079167;28;20047;-78
2023/06/22 09:12:44;;;;;;;9.77;7.00;;;29.60;98.90;;;;;;5081367;28;20486;-76
2023/06/22 09:15:10;;;;;;;11.13;7.35;;;29.80;98.60;;;;;;5049977;28;20097;-78
2023/06/22 09:17:36;;;;;;;7.82;6.60;;;30.00;98.20;;;;;;5099415;28;20104;-76
2023/06/22 09:20:05;;;;;;;8.90;7.13;;;30.20;97.80;;;;;;5098550;28;20048;-77
2023/06/22 09:22:31;;;;;;;6.47;5.43;;;30.40;97.30;;;;;;5082717;28;20402;-77
2023/06/22 09:24:59;;;;;;;9.80;7.45;;;30.50;97.10;;;;;;5118614;28;20062;-77
2023/06/22 09:27:25;;;;;;;8.35;7.07;;;30.70;96.80;;;;;;5096090;28;20495;-77
2023/06/22 09:29:51;;;;;;;8.88;6.88;;;30.70;96.50;;;;;;5097835;28;20060;-78
2023/06/22 09:32:20;;;;;;;7.28;6.45;;;30.80;95.80;;;;;;5119049;28;20414;-77
2023/06/22 09:34:45;;;;;;;8.30;6.22;;;31.00;95.50;;;;;;5051029;28;20044;-75
2023/06/22 09:37:11;;;;;;;7.22;5.28;;;31.10;94.80;;;;;;5064092;28;20075;-74
2023/06/22 09:39:37;;;;;;;7.75;5.88;;;31.30;94.40;;;;;;5083799;27;20054;-77
2023/06/22 09:42:06;;;;;;;7.78;5.05;;;31.40;94.10;;;;;;5086225;27;20143;-74
2023/06/22 09:44:32;;;;;;;7.53;6.40;;;31.40;93.90;;;;;;5102517;27;20047;-74
2023/06/22 09:46:57;;;;;;;7.43;6.20;;;31.40;93.30;;;;;;5084859;27;20119;-73
2023/06/22 09:49:23;;;;;;;8.02;6.00;;;31.30;93.40;;;;;;5086059;27;20040;-75
2023/06/22 09:51:50;;;;;;;6.47;5.00;;;31.00;93.00;;;;;;5068805;27;20046;-74
2023/06/22 09:54:16;;;;;;;4.72;3.25;;;31.00;92.90;;;;;;5086241;27;20051;-74
2023/06/22 09:56:42;;;;;;;6.13;3.33;;;31.20;92.50;;;;;;5085131;27;20081;-74
2023/06/22 09:59:08;;;;;;;5.07;3.40;;;31.20;92.20;;;;;;5102146;27;20081;-74
2023/06/22 10:01:33;;;;;;;7.10;5.32;;;31.30;91.40;;;;;;5103729;27;20131;-75
2023/06/22 10:03:59;;;;;;;6.15;4.00;;;31.50;91.30;;;;;;5086958;27;20567;-73
2023/06/22 10:06:25;;;;;;;7.10;4.15;;;31.60;91.00;;;;;;5078569;27;20683;-75
2023/06/22 10:08:51;;;;;;;6.75;4.55;;;31.60;90.50;;;;;;5095607;27;20081;-73
2023/06/22 10:11:17;;;;;;;7.47;5.05;;;31.50;90.00;;;;;;5102020;27;20078;-75
2023/06/22 10:13:43;;;;;;;5.05;4.50;;;31.40;89.70;;;;;;5095926;27;20089;-76
2023/06/22 10:16:20;;;;;;;5.47;4.38;;;31.50;90.20;;;;;;5096110;27;20051;-72
2023/06/22 10:19:33;;;;;;;5.72;5.13;;;31.50;90.20;;;;;;5067835;27;20051;-75
2023/06/22 10:22:20;;;;;;;6.38;5.35;;;31.70;90.30;;;;;;5076752;27;20210;-74
2023/06/22 10:25:05;;;;;;;5.90;4.45;;;31.80;90.00;;;;;;5060982;27;20055;-85
2023/06/22 10:27:31;;;;;;;6.65;4.90;;;32.10;90.10;;;;;;5068904;27;20043;-79
2023/06/22 10:29:57;;;;;;;8.00;4.72;;;32.20;90.00;;;;;;5082433;27;20145;-83
2023/06/22 10:32:22;;;;;;;5.78;4.55;;;32.30;89.00;;;;;;5036637;27;20051;-79
2023/06/22 10:34:48;;;;;;;7.18;4.50;;;32.50;88.30;;;;;;5110680;27;20054;-82
2023/06/22 10:37:14;;;;;;;5.22;3.95;;;32.60;87.10;;;;;;5097724;27;20038;-78
2023/06/22 10:39:40;;;;;;;6.15;5.05;;;32.80;87.00;;;;;;5110128;27;20049;-82
2023/06/22 10:42:06;;;;;;;6.03;3.80;;;32.90;86.30;;;;;;5106541;27;20039;-79
2023/06/22 10:45:13;;;;;;;5.43;3.85;;;33.10;85.80;;;;;;5101480;27;20074;-79
2023/06/22 10:48:13;;;;;;;6.72;4.40;;;34.60;82.40;;;;;;5068351;27;20047;-74
2023/06/22 10:51:01;;;;;;;6.70;4.75;;;33.40;82.50;;;;;;5090617;27;20151;-73
2023/06/22 10:56:58;;;;;;;7.55;5.00;;;33.60;81.70;;;;;;5111657;27;20039;-72
2023/06/22 10:59:45;;;;;;;6.38;4.00;;;33.80;82.30;;;;;;5110549;27;20075;-73
2023/06/22 11:02:34;;;;;;;5.60;4.75;;;34.00;82.40;;;;;;5074471;27;20059;-73
2023/06/22 11:08:44;;;;;;;6.53;4.28;;;33.80;80.60;;;;;;5047738;28;20127;-72
2023/06/22 11:12:17;;;;;;;7.15;5.50;;;33.60;81.30;;;;;;5056249;28;20084;-72
2023/06/22 11:14:51;;;;;;;7.07;4.82;;;33.40;80.40;;;;;;5046617;28;20048;-71
2023/06/22 11:20:54;;;;;;;5.72;3.80;;;33.00;82.30;;;;;;5007289;28;20718;-72
2023/06/22 11:23:26;;;;;;;5.95;4.97;;;32.80;81.50;;;;;;5037836;28;20048;-73
2023/06/22 11:25:56;;;;;;;4.25;3.55;;;32.50;81.10;;;;;;4961781;28;20052;-74
2023/06/22 11:29:16;;;;;;;4.95;2.65;;;32.30;82.00;;;;;;5017706;28;20052;-71
2023/06/22 11:32:27;;;;;;;4.95;2.80;;;32.10;81.50;;;;;;4993519;28;20166;-73
2023/06/22 11:35:14;;;;;;;5.45;3.35;;;31.90;81.80;;;;;;5055383;28;20045;-72
2023/06/22 11:38:08;;;;;;;3.40;2.92;;;31.80;81.80;;;;;;5048428;28;20114;-77
2023/06/22 11:41:01;;;;;;;5.22;3.35;;;31.80;81.50;;;;;;5022872;28;20052;-75
2023/06/22 11:47:30;;;;;;;5.38;3.60;;;31.90;81.80;;;;;;5055677;28;20052;-75
2023/06/22 11:50:47;;;;;;;4.80;2.95;;;32.10;80.90;;;;;;5055168;28;20060;-76
2023/06/22 11:53:53;;;;;;;6.93;3.97;;;32.20;81.00;;;;;;5036906;28;20496;-74
2023/06/22 11:56:37;;;;;;;4.35;3.38;;;32.30;80.90;;;;;;5055360;28;20044;-75
2023/06/22 11:59:32;;;;;;;5.70;3.55;;;32.30;80.70;;;;;;5024580;28;20161;-75
2023/06/22 12:05:59;;;;;;;4.82;4.25;;;32.40;80.80;;;;;;5055375;28;20043;-75
2023/06/22 12:08:51;;;;;;;4.97;3.50;;;32.40;80.20;;;;;;5054095;28;20165;-76
2023/06/22 12:12:23;;;;;;;4.25;2.90;;;32.40;80.00;;;;;;5079265;27;20054;-76
2023/06/22 12:15:26;;;;;;;6.88;3.33;;;32.20;79.10;;;;;;5080293;27;20055;-77
2023/06/22 12:18:17;;;;;;;5.53;3.50;;;32.50;80.00;;;;;;5088251;27;20130;-76
2023/06/22 12:21:23;;;;;;;4.85;3.42;;;32.50;79.60;;;;;;5093218;28;20049;-75
2023/06/22 12:23:58;;;;;;;5.07;2.75;;;32.50;78.90;;;;;;5080583;27;20039;-75
2023/06/22 12:27:22;;;;;;;5.43;3.20;;;32.30;79.20;;;;;;5112029;27;20109;-73
2023/06/22 12:33:19;;;;;;;3.55;2.40;;;32.30;78.20;;;;;;5091719;27;20058;-74
2023/06/22 12:36:31;;;;;;;4.97;1.80;;;32.20;78.00;;;;;;5096769;27;20072;-73
2023/06/22 12:40:08;;;;;;;3.42;2.25;;;32.00;77.10;;;;;;5108217;27;20088;-76
2023/06/22 12:43:29;;;;;;;3.72;2.00;;;31.80;77.60;;;;;;5015185;28;20052;-74
2023/06/22 12:46:39;;;;;;;3.58;2.10;;;31.60;77.80;;;;;;5032533;28;20055;-75
2023/06/22 12:49:57;;;;;;;2.97;2.08;;;31.30;77.90;;;;;;5032440;28;20056;-74
2023/06/22 12:52:49;;;;;;;4.65;2.25;;;31.00;77.70;;;;;;5032589;28;20060;-75
2023/06/22 12:58:36;;;;;;;3.83;2.20;;;30.50;79.00;;;;;;5085942;28;20517;-74
2023/06/22 13:01:32;;;;;;;4.15;1.92;;;30.30;78.30;;;;;;5089264;28;20052;-74
2023/06/22 13:04:52;;;;;;;2.80;1.95;;;30.20;78.90;;;;;;5093946;28;20047;-77
2023/06/22 13:07:51;;;;;;;3.72;1.67;;;29.80;78.50;;;;;;5090449;28;20059;-76
2023/06/22 13:10:18;;;;;;;2.78;1.55;;;29.50;78.50;;;;;;5105634;28;20051;-77
2023/06/22 13:13:24;;;;;;;2.67;1.83;;;29.30;79.40;;;;;;5011837;28;20088;-77
2023/06/22 13:15:50;;;;;;;3.42;1.40;;;29.10;79.10;;;;;;5007351;28;20117;-81
2023/06/22 13:18:16;;;;;;;3.20;1.40;;;28.90;80.00;;;;;;5006717;28;20125;-79
2023/06/22 13:20:48;;;;;;;2.70;1.33;;;28.70;80.00;;;;;;5020751;28;20041;-73
2023/06/22 13:23:26;;;;;;;3.33;1.55;;;28.50;80.10;;;;;;5003271;28;20064;-74
2023/06/22 13:25:52;;;;;;;2.75;1.50;;;28.30;79.70;;;;;;5020365;28;20082;-73